Time;durP1;ratioP1;P1;durP2;ratioP2;P2;SDS_P1;SDS_P2;PMS_P1;PMS_P2;Temp;Humidity;BMP_temperature;BMP_pressure;BME280_temperature;BME280_humidity;BME280_pressure;Samples;Min_cycle;Max_cycle;Signal;HPM_P1;HPM_P2
2023/05/26 00:00:15;;;;;;;10.27;5.60;;;;;;;20.68;80.78;101072.63;5092591;28;20044;-79
2023/05/26 00:02:44;;;;;;;11.00;6.45;;;;;;;20.53;81.40;101066.47;5092414;28;20487;-79
2023/05/26 00:05:20;;;;;;;8.05;6.07;;;;;;;20.43;82.13;101071.63;5092184;28;20067;-79
2023/05/26 00:07:48;;;;;;;9.32;6.00;;;;;;;20.31;82.80;101061.22;5092698;28;20043;-79
2023/05/26 00:10:16;;;;;;;9.35;5.95;;;;;;;20.54;81.24;101061.75;5092554;28;20055;-79
2023/05/26 00:12:44;;;;;;;7.75;5.40;;;;;;;20.44;82.57;101051.00;5091599;28;20046;-79
2023/05/26 00:15:12;;;;;;;10.27;6.00;;;;;;;20.43;82.06;101060.50;5092499;28;20395;-79
2023/05/26 00:17:40;;;;;;;8.63;5.95;;;;;;;20.34;83.08;101058.56;5091266;28;20398;-79
2023/05/26 00:20:10;;;;;;;9.07;5.90;;;;;;;20.36;83.36;101059.06;5092606;28;20390;-79
2023/05/26 00:22:38;;;;;;;8.15;6.00;;;;;;;20.18;83.82;101051.97;5091069;28;20406;-79
2023/05/26 00:25:06;;;;;;;7.80;6.43;;;;;;;20.09;83.99;101063.13;5092300;28;20068;-79
2023/05/26 00:27:35;;;;;;;8.38;5.38;;;;;;;20.11;85.37;101056.09;5092410;28;20483;-79
2023/05/26 00:30:04;;;;;;;7.90;5.97;;;;;;;20.03;85.46;101065.25;5090992;28;20044;-79
2023/05/26 00:32:32;;;;;;;10.38;5.88;;;;;;;20.29;85.05;101064.34;5091575;28;20052;-79
2023/05/26 00:34:59;;;;;;;12.70;7.05;;;;;;;20.08;84.21;101059.53;5091656;28;20052;-79
2023/05/26 00:37:28;;;;;;;13.00;7.40;;;;;;;19.98;84.63;101057.09;5092021;28;20055;-79
2023/05/26 00:39:56;;;;;;;8.93;6.30;;;;;;;20.11;85.01;101061.66;5091179;28;20044;-79
2023/05/26 00:42:24;;;;;;;10.57;7.00;;;;;;;20.12;84.84;101059.66;5092158;28;20047;-79
2023/05/26 00:44:52;;;;;;;9.10;6.07;;;;;;;19.91;83.77;101060.38;5090888;28;20032;-79
2023/05/26 00:47:20;;;;;;;9.50;6.22;;;;;;;19.91;84.54;101057.59;5092093;28;20414;-79
2023/05/26 00:49:49;;;;;;;11.43;6.70;;;;;;;19.95;84.34;101052.19;5092070;28;20384;-79
2023/05/26 00:52:17;;;;;;;11.63;7.05;;;;;;;19.80;86.25;101054.34;5090311;28;20044;-79
2023/05/26 00:54:45;;;;;;;8.25;5.85;;;;;;;19.72;85.40;101046.88;5091971;28;20052;-79
2023/05/26 00:57:13;;;;;;;8.18;6.35;;;;;;;19.74;86.33;101048.19;5091854;28;20509;-79
2023/05/26 00:59:41;;;;;;;10.10;6.10;;;;;;;19.60;86.36;101048.38;5074095;28;20509;-79
2023/05/26 01:02:12;;;;;;;9.32;6.40;;;;;;;19.52;87.05;101045.63;5090300;28;20411;-79
2023/05/26 01:04:40;;;;;;;8.30;5.43;;;;;;;19.82;86.79;101049.31;5090183;28;20401;-79
2023/05/26 01:07:09;;;;;;;8.23;5.72;;;;;;;19.93;86.23;101048.91;5073880;28;20417;-79
2023/05/26 01:09:37;;;;;;;7.10;5.63;;;;;;;19.72;85.82;101050.47;5090449;28;20509;-79
2023/05/26 01:12:12;;;;;;;8.13;5.38;;;;;;;19.81;86.10;101058.78;5091613;28;20040;-79
2023/05/26 01:14:49;;;;;;;8.68;6.22;;;;;;;20.05;84.16;101054.66;5073790;28;20067;-79
2023/05/26 01:17:22;;;;;;;10.40;5.72;;;;;;;19.96;84.93;101059.41;5091857;28;20048;-79
2023/05/26 01:20:07;;;;;;;6.65;5.55;;;;;;;19.96;84.47;101053.84;5090757;28;20070;-79
2023/05/26 01:22:48;;;;;;;8.10;5.35;;;;;;;19.99;85.54;101058.75;5095082;28;20077;-79
2023/05/26 01:25:46;;;;;;;8.13;5.55;;;;;;;20.07;85.45;101060.69;5094232;28;20047;-79
2023/05/26 01:28:17;;;;;;;8.05;5.38;;;;;;;19.86;85.68;101061.38;5095541;28;20055;-79
2023/05/26 01:30:48;;;;;;;8.77;5.38;;;;;;;19.45;87.81;101057.22;5095222;28;20085;-79
2023/05/26 01:33:16;;;;;;;8.90;6.03;;;;;;;19.55;87.74;101050.53;5093565;28;20052;-79
2023/05/26 01:35:44;;;;;;;9.90;6.88;;;;;;;19.60;86.51;101059.47;5095453;28;20475;-79
2023/05/26 01:38:14;;;;;;;8.60;6.03;;;;;;;19.73;86.15;101056.84;5094967;28;20052;-79
2023/05/26 01:40:45;;;;;;;9.43;5.95;;;;;;;19.82;86.09;101062.38;5095074;28;20048;-79
2023/05/26 01:43:28;;;;;;;9.13;6.15;;;;;;;19.93;85.21;101060.03;5095152;28;20048;-79
2023/05/26 01:46:05;;;;;;;9.43;6.50;;;;;;;19.74;85.07;101059.28;5094111;28;20064;-79
2023/05/26 01:48:36;;;;;;;12.13;6.97;;;;;;;19.64;86.07;101056.84;5076947;28;20070;-79
2023/05/26 01:51:06;;;;;;;9.52;6.65;;;;;;;19.56;85.93;101061.28;5093659;28;20044;-79
2023/05/26 01:53:37;;;;;;;10.23;7.00;;;;;;;19.33;88.26;101053.19;5094065;28;20032;-79
2023/05/26 01:56:07;;;;;;;7.95;6.20;;;;;;;19.23;88.62;101059.06;5093771;28;20044;-79
2023/05/26 01:58:37;;;;;;;12.70;7.57;;;;;;;19.15;88.96;101055.13;5093739;28;20044;-79
2023/05/26 02:01:06;;;;;;;9.57;6.90;;;;;;;19.12;89.12;101055.81;5093004;28;20616;-79
2023/05/26 02:03:35;;;;;;;11.38;6.95;;;;;;;19.38;88.26;101052.19;5093420;28;20047;-79
2023/05/26 02:06:04;;;;;;;11.65;7.07;;;;;;;19.58;87.18;101055.41;5093543;28;20051;-79
2023/05/26 02:08:35;;;;;;;10.82;7.13;;;;;;;19.55;87.16;101056.09;5093714;28;20063;-79
2023/05/26 02:11:03;;;;;;;10.27;7.35;;;;;;;19.20;88.15;101060.53;5093348;28;20048;-79
2023/05/26 02:13:31;;;;;;;10.00;7.78;;;;;;;19.14;90.25;101058.22;5076449;28;20048;-79
2023/05/26 02:15:59;;;;;;;10.10;6.63;;;;;;;19.25;89.41;101062.31;5093629;28;20044;-79
2023/05/26 02:18:27;;;;;;;10.80;7.40;;;;;;;19.17;88.80;101047.28;5094546;28;20059;-79
2023/05/26 02:20:55;;;;;;;10.18;6.80;;;;;;;18.87;90.85;101044.34;5093217;28;20044;-79
2023/05/26 02:23:26;;;;;;;10.10;6.78;;;;;;;19.16;89.43;101047.66;5092807;28;20059;-79
2023/05/26 02:25:54;;;;;;;9.75;6.70;;;;;;;19.30;88.58;101045.50;5093786;28;20388;-79
2023/05/26 02:28:22;;;;;;;10.80;7.00;;;;;;;19.17;88.77;101058.41;5093787;28;20048;-79
2023/05/26 02:30:49;;;;;;;11.23;6.70;;;;;;;19.01;89.58;101051.69;5094344;28;20044;-79
2023/05/26 02:33:17;;;;;;;9.32;6.50;;;;;;;18.90;90.33;101053.97;5075822;28;20067;-79
2023/05/26 02:35:45;;;;;;;11.75;6.43;;;;;;;18.62;92.07;101045.97;5094205;28;20047;-79
2023/05/26 02:38:14;;;;;;;10.20;6.50;;;;;;;18.74;91.07;101046.13;5092669;28;20479;-79
2023/05/26 02:40:41;;;;;;;10.10;5.88;;;;;;;18.73;90.14;101043.69;5094282;28;20056;-79
2023/05/26 02:43:09;;;;;;;12.07;6.05;;;;;;;18.63;89.96;101044.81;5092978;28;20062;-79
2023/05/26 02:45:40;;;;;;;8.82;5.68;;;;;;;18.50;91.34;101046.56;5094040;28;20785;-79
2023/05/26 02:48:08;;;;;;;10.07;5.95;;;;;;;18.40;91.14;101042.16;5092198;28;20411;-79
2023/05/26 02:50:35;;;;;;;10.10;5.47;;;;;;;18.61;90.24;101047.06;5094077;28;20058;-79
2023/05/26 02:53:03;;;;;;;8.38;5.80;;;;;;;18.62;90.49;101051.50;5093363;28;20490;-79
2023/05/26 02:55:31;;;;;;;7.28;5.53;;;;;;;18.73;90.30;101052.78;5093638;28;20506;-79
2023/05/26 02:58:03;;;;;;;8.77;5.30;;;;;;;18.80;89.62;101047.59;5082669;28;20048;-79
2023/05/26 03:00:31;;;;;;;10.15;6.22;;;;;;;18.69;90.51;101056.56;5072484;28;20049;-79
2023/05/26 03:03:00;;;;;;;9.85;5.32;;;;;;;18.82;89.64;101057.56;5078485;28;20051;-79
2023/05/26 03:05:28;;;;;;;9.23;5.80;;;;;;;18.67;90.01;101051.31;5092452;28;20051;-79
2023/05/26 03:07:56;;;;;;;7.13;5.30;;;;;;;18.90;89.83;101056.72;5091883;28;20051;-79
2023/05/26 03:10:24;;;;;;;7.13;5.47;;;;;;;18.75;91.10;101058.03;5092407;28;20048;-79
2023/05/26 03:12:52;;;;;;;7.63;6.03;;;;;;;18.86;89.16;101056.56;5091965;28;20039;-79
2023/05/26 03:15:20;;;;;;;9.05;6.03;;;;;;;18.69;89.71;101059.31;5092023;28;20498;-79
2023/05/26 03:17:50;;;;;;;8.30;5.82;;;;;;;18.53;90.53;101063.38;5075490;28;20398;-79
2023/05/26 03:20:19;;;;;;;11.93;5.80;;;;;;;18.39;91.05;101059.94;5092313;28;20055;-79
2023/05/26 03:22:47;;;;;;;9.18;5.90;;;;;;;18.21;92.74;101062.63;5091866;28;20044;-79
2023/05/26 03:25:19;;;;;;;7.88;5.65;;;;;;;18.33;93.06;101070.31;5092163;28;20048;-79
2023/05/26 03:27:48;;;;;;;7.18;5.60;;;;;;;18.47;92.04;101053.56;5093820;28;20048;-79
2023/05/26 03:30:18;;;;;;;10.48;6.00;;;;;;;18.84;90.31;101055.25;5091692;28;20044;-79
2023/05/26 03:32:47;;;;;;;8.38;5.78;;;;;;;18.78;89.61;101058.19;5092857;28;20054;-78
2023/05/26 03:35:15;;;;;;;7.88;5.93;;;;;;;18.48;91.48;101055.22;5072889;28;20049;-79
2023/05/26 03:37:43;;;;;;;8.68;6.38;;;;;;;18.54;91.16;101053.91;5071621;28;20052;-79
2023/05/26 03:40:12;;;;;;;8.25;5.75;;;;;;;18.38;91.68;101055.53;5071295;28;20044;-79
2023/05/26 03:42:43;;;;;;;8.90;5.63;;;;;;;18.44;91.88;101053.41;5070612;28;20048;-79
2023/05/26 03:45:15;;;;;;;10.07;5.70;;;;;;;18.47;91.16;101059.13;5071018;28;20533;-79
2023/05/26 03:47:43;;;;;;;9.85;6.60;;;;;;;18.38;91.82;101069.38;5055059;28;20482;-79
2023/05/26 03:50:13;;;;;;;10.07;5.40;;;;;;;18.37;91.18;101073.25;5070668;28;20051;-79
2023/05/26 03:52:40;;;;;;;10.02;6.43;;;;;;;18.42;91.26;101075.88;5072200;28;20399;-79
2023/05/26 03:55:10;;;;;;;7.05;5.35;;;;;;;18.53;90.38;101068.91;5072735;28;20055;-79
2023/05/26 03:57:39;;;;;;;8.32;5.90;;;;;;;18.61;90.38;101064.53;5055102;28;20514;-79
2023/05/26 04:00:10;;;;;;;6.38;5.45;;;;;;;18.51;89.51;101071.19;5071392;28;20048;-79
2023/05/26 04:02:44;;;;;;;8.40;5.93;;;;;;;18.38;89.22;101070.19;5072462;28;20479;-79
2023/05/26 04:05:14;;;;;;;8.75;5.50;;;;;;;18.18;90.76;101065.22;5071057;28;20044;-79
2023/05/26 04:07:44;;;;;;;7.28;5.68;;;;;;;17.90;91.76;101069.00;5104435;28;20052;-79
2023/05/26 04:10:12;;;;;;;8.80;5.80;;;;;;;18.15;92.46;101069.47;5071315;28;20040;-79
2023/05/26 04:12:39;;;;;;;10.23;5.90;;;;;;;18.29;90.88;101062.97;5072459;28;20049;-79
2023/05/26 04:15:10;;;;;;;7.63;5.60;;;;;;;18.56;89.71;101067.44;5072281;28;20036;-79
2023/05/26 04:17:38;;;;;;;7.72;5.70;;;;;;;18.53;89.64;101073.66;5070815;28;20045;-79
2023/05/26 04:20:11;;;;;;;6.63;5.03;;;;;;;18.88;87.80;101068.16;5070800;28;20044;-79
2023/05/26 04:22:40;;;;;;;8.10;5.60;;;;;;;19.03;87.14;101066.91;5070695;28;20052;-79
2023/05/26 04:25:08;;;;;;;6.68;5.30;;;;;;;18.82;87.43;101066.66;5072343;28;20387;-79
2023/05/26 04:28:02;;;;;;;7.70;5.03;;;;;;;18.51;86.59;101071.19;5071284;28;20059;-79
2023/05/26 04:31:00;;;;;;;7.95;5.20;;;;;;;18.58;87.55;101069.91;5070811;28;20044;-79
2023/05/26 04:33:52;;;;;;;5.32;4.40;;;;;;;18.63;88.31;101078.06;5095608;28;20048;-80
2023/05/26 04:36:40;;;;;;;7.55;5.38;;;;;;;18.67;87.18;101073.50;5091481;28;20040;-79
2023/05/26 04:39:08;;;;;;;6.07;4.68;;;;;;;18.58;87.24;101081.78;5090230;28;20051;-79
2023/05/26 04:41:38;;;;;;;8.15;4.93;;;;;;;18.66;87.85;101077.41;5091535;28;20044;-78
2023/05/26 04:44:06;;;;;;;6.05;4.63;;;;;;;18.78;87.66;101080.38;5092538;28;20379;-87
2023/05/26 04:46:37;;;;;;;9.98;5.28;;;;;;;18.78;86.71;101072.06;5056957;28;20048;-87
2023/05/26 04:49:07;;;;;;;7.65;5.20;;;;;;;18.77;87.26;101081.50;5089750;28;20051;-85
2023/05/26 04:51:35;;;;;;;7.72;4.53;;;;;;;18.70;88.84;101083.13;5085096;28;20044;-86
2023/05/26 04:54:03;;;;;;;7.50;4.90;;;;;;;18.87;87.77;101083.16;5087340;28;20052;-85
2023/05/26 04:56:31;;;;;;;9.20;5.13;;;;;;;19.10;86.06;101079.47;5096033;28;20037;-84
2023/05/26 04:58:59;;;;;;;6.40;4.60;;;;;;;19.14;85.29;101088.75;5087491;28;20039;-86
2023/05/26 05:01:28;;;;;;;9.27;5.10;;;;;;;19.24;85.50;101093.16;5087864;28;20410;-85
2023/05/26 05:04:16;;;;;;;6.47;4.80;;;;;;;19.33;85.38;101097.56;5090631;28;20048;-84
2023/05/26 05:06:57;;;;;;;6.57;4.80;;;;;;;19.38;84.76;101101.31;5074261;28;20056;-83
2023/05/26 05:09:25;;;;;;;7.03;4.55;;;;;;;19.47;84.45;101099.34;5090784;28;20047;-84
2023/05/26 05:11:54;;;;;;;8.23;4.95;;;;;;;19.58;83.28;101106.19;5090226;28;20056;-84
2023/05/26 05:14:22;;;;;;;7.88;5.03;;;;;;;19.57;82.79;101101.78;5092725;28;20040;-87
2023/05/26 05:16:51;;;;;;;7.78;4.82;;;;;;;19.84;81.51;101110.88;5087145;28;20063;-87
2023/05/26 05:19:19;;;;;;;6.57;4.60;;;;;;;19.88;80.43;101108.25;5099378;28;20525;-86
2023/05/26 05:21:51;;;;;;;6.30;4.70;;;;;;;20.09;80.09;101110.34;5084800;28;20087;-87
2023/05/26 05:24:19;;;;;;;5.20;4.60;;;;;;;19.83;81.66;101095.38;5085660;28;20044;-87
2023/05/26 05:26:47;;;;;;;5.78;4.43;;;;;;;20.03;79.93;101106.13;5084188;28;20040;-85
2023/05/26 05:29:19;;;;;;;5.07;4.40;;;;;;;20.11;79.96;101110.81;5107143;28;20059;-87
2023/05/26 05:31:50;;;;;;;6.07;4.90;;;;;;;20.18;77.81;101115.88;5075956;28;20043;-87
2023/05/26 05:34:18;;;;;;;9.02;4.68;;;;;;;20.30;78.34;101117.94;5095472;28;20048;-87
2023/05/26 05:36:48;;;;;;;7.82;5.00;;;;;;;20.39;76.12;101127.88;5086365;28;20032;-87
2023/05/26 05:39:16;;;;;;;9.15;5.03;;;;;;;20.58;75.31;101114.72;5091600;28;20059;-85
2023/05/26 05:41:45;;;;;;;6.00;4.68;;;;;;;20.70;74.96;101113.97;5082565;28;20041;-84
2023/05/26 05:44:14;;;;;;;6.18;4.10;;;;;;;20.76;73.22;101113.44;5079116;28;20063;-85
2023/05/26 05:46:43;;;;;;;4.45;4.05;;;;;;;20.84;73.29;101103.44;5081991;28;20040;-86
2023/05/26 05:49:17;;;;;;;4.38;3.97;;;;;;;21.01;71.52;101115.63;5081195;28;20055;-86
2023/05/26 05:51:48;;;;;;;7.32;4.63;;;;;;;21.17;71.74;101122.19;5091321;28;20051;-86
2023/05/26 05:54:17;;;;;;;6.63;3.95;;;;;;;21.15;72.14;101118.94;5089116;28;20044;-85
